Time;durP1;ratioP1;P1;durP2;ratioP2;P2;SDS_P1;SDS_P2;PMS_P1;PMS_P2;Temp;Humidity;BMP_temperature;BMP_pressure;BME280_temperature;BME280_humidity;BME280_pressure;Samples;Min_cycle;Max_cycle;Signal;HPM_P1;HPM_P2
2021/09/15 00:01:28;;;;;;;11.77;9.40;;;14.60;99.90;;;;;;5090094;29;20706;-67
2021/09/15 00:04:01;;;;;;;13.90;10.00;;;14.60;99.90;;;;;;5090057;29;20296;-68
2021/09/15 00:06:33;;;;;;;13.60;10.17;;;14.60;99.90;;;;;;5089793;29;20684;-68
2021/09/15 00:09:05;;;;;;;14.40;10.03;;;14.60;99.90;;;;;;5090001;29;20213;-70
2021/09/15 00:11:37;;;;;;;19.20;11.60;;;14.60;99.90;;;;;;5089971;29;20233;-70
2021/09/15 00:14:09;;;;;;;17.33;11.17;;;14.60;99.90;;;;;;5106874;29;20224;-69
2021/09/15 00:16:41;;;;;;;19.40;11.80;;;14.60;99.90;;;;;;5107539;29;20252;-66
2021/09/15 00:19:17;;;;;;;16.40;10.47;;;14.60;99.90;;;;;;5110655;29;20210;-67
2021/09/15 00:21:49;;;;;;;18.30;10.37;;;14.60;99.90;;;;;;5109933;29;20700;-66
2021/09/15 00:24:23;;;;;;;16.70;10.57;;;14.60;99.90;;;;;;5094151;29;20221;-68
2021/09/15 00:26:55;;;;;;;17.23;11.40;;;14.60;99.90;;;;;;5110292;29;20296;-67
2021/09/15 00:29:27;;;;;;;18.47;10.77;;;14.60;99.90;;;;;;5094286;29;20325;-66
2021/09/15 00:31:59;;;;;;;13.80;10.50;;;14.60;99.90;;;;;;5079832;29;20205;-69
2021/09/15 00:34:31;;;;;;;18.17;11.43;;;14.60;99.90;;;;;;5095065;29;20244;-70
2021/09/15 00:37:04;;;;;;;17.33;11.57;;;14.60;99.90;;;;;;5109751;29;20308;-68
2021/09/15 00:39:36;;;;;;;16.73;10.60;;;14.60;99.90;;;;;;5093632;29;20209;-68
2021/09/15 00:42:11;;;;;;;17.90;11.37;;;14.60;99.90;;;;;;5110313;29;20713;-68
2021/09/15 00:44:46;;;;;;;19.47;12.33;;;14.60;99.90;;;;;;5094055;29;20201;-71
2021/09/15 00:47:20;;;;;;;16.43;11.70;;;14.50;99.90;;;;;;5093344;29;20233;-69
2021/09/15 00:49:52;;;;;;;15.43;11.33;;;14.50;99.90;;;;;;5109914;29;20205;-69
2021/09/15 00:52:24;;;;;;;19.13;12.00;;;14.50;99.90;;;;;;5110197;29;20299;-69
2021/09/15 00:54:56;;;;;;;18.60;11.73;;;14.50;99.90;;;;;;5110025;29;20224;-71
2021/09/15 00:57:28;;;;;;;21.70;13.27;;;14.50;99.90;;;;;;5109691;29;20242;-66
2021/09/15 01:00:00;;;;;;;20.93;12.37;;;14.50;99.90;;;;;;5110022;29;20210;-66
2021/09/15 01:02:32;;;;;;;19.13;12.10;;;14.50;99.90;;;;;;5093352;29;20245;-67
2021/09/15 01:05:05;;;;;;;23.40;13.07;;;14.40;99.90;;;;;;5093362;29;20223;-68
2021/09/15 01:07:43;;;;;;;17.67;11.67;;;14.40;99.90;;;;;;5110596;29;20264;-67
2021/09/15 01:10:16;;;;;;;18.63;12.27;;;14.30;99.90;;;;;;5110066;29;20198;-68
2021/09/15 01:12:51;;;;;;;17.63;11.53;;;14.30;99.90;;;;;;5109552;29;20240;-69
2021/09/15 01:15:24;;;;;;;17.33;11.27;;;14.20;99.90;;;;;;5109628;29;20189;-68
2021/09/15 01:17:58;;;;;;;20.03;12.50;;;14.20;99.90;;;;;;5109577;29;20234;-70
2021/09/15 01:20:39;;;;;;;18.40;12.90;;;14.10;99.90;;;;;;5109950;29;20205;-70
2021/09/15 01:23:12;;;;;;;16.67;11.77;;;14.00;99.90;;;;;;5093430;29;20233;-66
2021/09/15 01:25:44;;;;;;;20.43;13.27;;;14.00;99.90;;;;;;5109325;29;20668;-67
2021/09/15 01:28:17;;;;;;;19.77;13.37;;;13.90;99.90;;;;;;5075553;29;20650;-66
2021/09/15 01:30:49;;;;;;;25.43;15.33;;;13.80;99.90;;;;;;5108924;29;20201;-67
2021/09/15 01:33:21;;;;;;;22.43;15.17;;;13.70;99.90;;;;;;5092384;29;20245;-66
2021/09/15 01:35:53;;;;;;;25.77;15.83;;;13.70;99.90;;;;;;5092432;29;20320;-67
2021/09/15 01:38:24;;;;;;;24.37;15.50;;;13.60;99.90;;;;;;5109219;29;20233;-73
2021/09/15 01:40:57;;;;;;;24.23;16.40;;;13.60;99.90;;;;;;5110081;29;20209;-67
2021/09/15 01:43:29;;;;;;;24.53;15.03;;;13.50;99.90;;;;;;5108986;29;20244;-69
2021/09/15 01:46:00;;;;;;;24.80;16.37;;;13.40;99.90;;;;;;5109011;29;20240;-70
2021/09/15 01:48:33;;;;;;;23.03;15.80;;;13.40;99.90;;;;;;5109161;29;20677;-68
2021/09/15 01:51:04;;;;;;;26.43;17.23;;;13.30;99.90;;;;;;5108854;29;20206;-69
2021/09/15 01:53:36;;;;;;;32.90;19.20;;;13.30;99.90;;;;;;5109070;29;20205;-67
2021/09/15 01:56:08;;;;;;;31.70;18.97;;;13.30;99.90;;;;;;5108909;29;20224;-69
2021/09/15 01:58:40;;;;;;;31.70;19.60;;;13.20;99.90;;;;;;5091691;29;20697;-72
2021/09/15 02:01:12;;;;;;;30.00;18.83;;;13.20;99.90;;;;;;5092136;29;20217;-66
2021/09/15 02:03:46;;;;;;;27.57;18.50;;;13.10;99.90;;;;;;5091922;29;20229;-68
2021/09/15 02:06:18;;;;;;;25.40;18.53;;;13.10;99.90;;;;;;5108761;29;20600;-67
2021/09/15 02:08:52;;;;;;;33.07;19.20;;;13.10;99.90;;;;;;5109036;29;20230;-69
2021/09/15 02:11:25;;;;;;;32.83;17.93;;;13.00;99.90;;;;;;5092771;29;20214;-67
2021/09/15 02:13:59;;;;;;;24.57;16.77;;;13.00;99.90;;;;;;5076875;29;20596;-72
2021/09/15 02:16:33;;;;;;;25.57;16.63;;;13.00;99.90;;;;;;5108798;29;20201;-72
2021/09/15 02:19:09;;;;;;;31.83;18.80;;;13.00;99.90;;;;;;5108110;29;20237;-68
2021/09/15 02:21:41;;;;;;;30.33;19.10;;;12.90;99.90;;;;;;5108751;29;20689;-70
2021/09/15 02:24:15;;;;;;;31.57;19.37;;;12.90;99.90;;;;;;5091485;29;20241;-67
2021/09/15 02:26:47;;;;;;;31.83;18.47;;;12.90;99.90;;;;;;5108449;29;20275;-71
2021/09/15 02:29:19;;;;;;;35.33;18.90;;;12.90;99.90;;;;;;5076042;29;20242;-67
2021/09/15 02:31:51;;;;;;;30.37;17.60;;;12.90;99.90;;;;;;5075902;29;20205;-69
2021/09/15 02:34:23;;;;;;;28.00;17.03;;;12.90;99.90;;;;;;5107940;29;20244;-69
2021/09/15 02:36:55;;;;;;;27.17;16.53;;;12.80;99.90;;;;;;5108292;29;20204;-69
2021/09/15 02:39:28;;;;;;;31.40;16.03;;;12.80;99.90;;;;;;5107825;29;20233;-70
2021/09/15 02:41:59;;;;;;;23.60;16.10;;;12.70;99.90;;;;;;5091741;29;20204;-69
2021/09/15 02:44:36;;;;;;;23.00;15.20;;;12.70;99.90;;;;;;5109959;29;20213;-66
2021/09/15 02:47:08;;;;;;;27.57;16.43;;;12.60;99.90;;;;;;5108260;29;20233;-68
2021/09/15 02:49:42;;;;;;;27.40;17.03;;;12.60;99.90;;;;;;5091459;29;20284;-70
2021/09/15 02:52:14;;;;;;;24.50;16.63;;;12.60;99.90;;;;;;5091894;29;20204;-68
2021/09/15 02:54:46;;;;;;;30.37;17.47;;;12.50;99.90;;;;;;5107772;29;20649;-68
2021/09/15 02:57:18;;;;;;;30.37;18.20;;;12.50;99.90;;;;;;5090974;29;20682;-73
2021/09/15 02:59:50;;;;;;;29.70;17.33;;;12.50;99.90;;;;;;5075541;29;20214;-68
2021/09/15 03:02:24;;;;;;;28.63;17.90;;;12.50;99.90;;;;;;5107706;29;20224;-66
2021/09/15 03:04:56;;;;;;;27.40;17.10;;;12.40;99.90;;;;;;5091187;29;20221;-68
2021/09/15 03:07:28;;;;;;;24.17;16.77;;;12.40;99.90;;;;;;5075229;29;20218;-68
2021/09/15 03:10:00;;;;;;;24.87;16.80;;;12.40;99.90;;;;;;5090696;29;20205;-68
2021/09/15 03:12:35;;;;;;;22.30;15.37;;;12.30;99.90;;;;;;5075606;29;20213;-71
2021/09/15 03:15:09;;;;;;;24.50;16.43;;;12.30;99.90;;;;;;5109025;29;20209;-68
2021/09/15 03:17:41;;;;;;;25.00;17.50;;;12.30;99.90;;;;;;5108486;29;20299;-68
2021/09/15 03:20:13;;;;;;;28.63;17.17;;;12.30;99.90;;;;;;5091097;29;20213;-67
2021/09/15 03:22:48;;;;;;;28.87;19.03;;;12.30;99.90;;;;;;5107368;29;20220;-68
2021/09/15 03:25:20;;;;;;;24.67;17.63;;;12.20;99.90;;;;;;5107755;29;20268;-68
2021/09/15 03:27:52;;;;;;;35.90;20.03;;;12.20;99.90;;;;;;5107309;29;20575;-68
2021/09/15 03:30:25;;;;;;;31.67;19.90;;;12.30;99.90;;;;;;5091155;29;20220;-69
2021/09/15 03:32:56;;;;;;;30.10;18.43;;;12.30;99.90;;;;;;5090747;29;20268;-66
2021/09/15 03:35:28;;;;;;;28.43;17.97;;;12.30;99.90;;;;;;5090675;29;20625;-70
2021/09/15 03:38:00;;;;;;;32.33;18.73;;;12.20;99.90;;;;;;5090784;29;20232;-72
2021/09/15 03:40:32;;;;;;;24.87;17.93;;;12.20;99.90;;;;;;5107275;29;20209;-70
2021/09/15 03:43:04;;;;;;;29.90;20.50;;;12.20;99.90;;;;;;5106837;29;20633;-67
2021/09/15 03:45:36;;;;;;;32.60;19.43;;;12.20;99.90;;;;;;5090639;29;20214;-68
2021/09/15 03:48:08;;;;;;;31.57;19.37;;;12.20;99.90;;;;;;5108753;29;20236;-70
2021/09/15 03:50:42;;;;;;;35.87;20.50;;;12.10;99.90;;;;;;5090796;29;20512;-70
2021/09/15 03:53:15;;;;;;;32.37;19.37;;;12.10;99.90;;;;;;5094310;29;20189;-69
2021/09/15 03:55:49;;;;;;;33.10;19.80;;;12.10;99.90;;;;;;5111104;29;20629;-70
2021/09/15 03:58:21;;;;;;;32.37;19.50;;;12.10;99.90;;;;;;5110948;29;20237;-68
2021/09/15 04:00:53;;;;;;;30.90;19.20;;;12.00;99.90;;;;;;5110737;29;20205;-69
2021/09/15 04:03:25;;;;;;;32.10;18.17;;;12.00;99.90;;;;;;5111067;29;20634;-70
2021/09/15 04:06:00;;;;;;;33.77;20.20;;;12.00;99.90;;;;;;5094305;29;20214;-67
2021/09/15 04:08:33;;;;;;;30.60;19.47;;;11.90;99.90;;;;;;5094840;29;20370;-70
2021/09/15 04:11:04;;;;;;;28.73;18.07;;;11.90;99.90;;;;;;5094667;29;20209;-70
2021/09/15 04:13:39;;;;;;;28.90;17.53;;;11.90;99.90;;;;;;5110970;29;20244;-71
2021/09/15 04:16:11;;;;;;;28.93;17.30;;;11.90;99.90;;;;;;5111283;29;20213;-72
2021/09/15 04:18:43;;;;;;;32.70;19.63;;;11.90;99.90;;;;;;5094731;29;20216;-70
2021/09/15 04:21:15;;;;;;;30.30;19.17;;;11.80;99.90;;;;;;5111019;29;20209;-68
2021/09/15 04:32:00;;;;;;;24.17;16.57;;;11.70;99.90;;;;;;5096331;29;20194;-71
2021/09/15 04:34:32;;;;;;;25.27;16.50;;;11.70;99.90;;;;;;5092173;29;20220;-69
2021/09/15 04:37:06;;;;;;;32.63;18.97;;;11.60;99.90;;;;;;5073397;29;20517;-72
2021/09/15 04:39:39;;;;;;;28.53;18.07;;;11.70;99.90;;;;;;5090494;29;20209;-68
2021/09/15 04:42:11;;;;;;;29.27;18.20;;;11.60;99.90;;;;;;5109270;29;20221;-69
2021/09/15 04:44:42;;;;;;;26.17;17.17;;;11.60;99.90;;;;;;5092452;29;20554;-68
2021/09/15 04:47:14;;;;;;;26.37;17.57;;;11.60;99.90;;;;;;5092394;29;20296;-70
2021/09/15 04:49:46;;;;;;;25.90;17.07;;;11.60;99.90;;;;;;5109669;29;20256;-71
2021/09/15 04:52:18;;;;;;;25.17;16.87;;;11.70;99.90;;;;;;5111009;29;20205;-67
2021/09/15 04:54:50;;;;;;;23.13;16.30;;;11.70;99.90;;;;;;5093228;29;20229;-69
2021/09/15 04:57:24;;;;;;;25.83;16.57;;;11.70;99.90;;;;;;5109483;29;20682;-73
2021/09/15 04:59:56;;;;;;;24.27;16.47;;;11.70;99.90;;;;;;5092729;29;20234;-72
2021/09/15 05:02:28;;;;;;;23.17;15.53;;;11.80;99.90;;;;;;5092566;29;20232;-68
2021/09/15 05:05:01;;;;;;;22.73;16.37;;;11.80;99.90;;;;;;5127873;29;20242;-66
2021/09/15 05:07:34;;;;;;;23.07;16.00;;;11.80;99.90;;;;;;5112838;29;20237;-71
2021/09/15 05:10:07;;;;;;;25.73;15.87;;;11.80;99.90;;;;;;5129424;28;20320;-72
2021/09/15 05:12:39;;;;;;;20.37;15.00;;;11.90;99.90;;;;;;5078395;29;20530;-66
2021/09/15 05:15:11;;;;;;;22.90;15.47;;;12.00;99.90;;;;;;5088437;29;20611;-68
2021/09/15 05:17:45;;;;;;;22.97;16.03;;;12.00;99.90;;;;;;5089645;29;20241;-66
2021/09/15 05:20:18;;;;;;;23.40;16.70;;;12.10;99.90;;;;;;5100013;29;20656;-68
2021/09/15 05:22:53;;;;;;;23.27;15.03;;;12.10;99.90;;;;;;5110207;29;20313;-70
2021/09/15 05:25:25;;;;;;;20.10;15.00;;;12.20;99.90;;;;;;5109485;29;20234;-74
2021/09/15 05:27:57;;;;;;;18.07;12.93;;;12.30;99.90;;;;;;5110332;29;20565;-69
2021/09/15 05:30:32;;;;;;;22.53;15.77;;;12.40;99.90;;;;;;5101672;29;20221;-65
2021/09/15 05:33:03;;;;;;;26.40;16.53;;;12.50;99.90;;;;;;5129133;28;20215;-68
2021/09/15 05:35:36;;;;;;;29.10;17.17;;;12.60;99.90;;;;;;5128597;28;20699;-69
2021/09/15 05:38:08;;;;;;;26.07;16.97;;;12.60;99.90;;;;;;5095577;29;20224;-69
2021/09/15 05:40:40;;;;;;;23.70;16.03;;;12.70;99.90;;;;;;5127923;28;20269;-68
2021/09/15 05:43:11;;;;;;;23.87;15.97;;;12.80;99.90;;;;;;5111495;29;20595;-70
2021/09/15 05:45:43;;;;;;;19.87;14.50;;;12.90;99.90;;;;;;5127854;28;20219;-70
2021/09/15 05:48:18;;;;;;;19.97;14.00;;;13.00;99.90;;;;;;5128021;29;20248;-67
2021/09/15 05:50:52;;;;;;;18.37;13.13;;;13.10;99.90;;;;;;5111190;28;20639;-68
2021/09/15 05:53:24;;;;;;;19.73;13.10;;;13.10;99.90;;;;;;5112711;29;20223;-67
2021/09/15 05:55:56;;;;;;;18.13;13.90;;;13.30;99.90;;;;;;5128389;28;20220;-68
2021/09/15 05:58:29;;;;;;;18.17;12.40;;;13.40;99.90;;;;;;5111588;29;20570;-69
2021/09/15 06:01:06;;;;;;;15.37;11.10;;;13.50;99.90;;;;;;5091923;29;20213;-71
2021/09/15 06:03:38;;;;;;;14.63;11.03;;;13.60;99.90;;;;;;5109952;29;20209;-69
2021/09/15 06:06:10;;;;;;;13.17;9.17;;;13.70;99.90;;;;;;5093234;29;20514;-70
2021/09/15 06:08:42;;;;;;;15.30;10.40;;;13.80;99.90;;;;;;5076634;29;20589;-69
2021/09/15 06:11:14;;;;;;;11.93;8.80;;;13.90;99.90;;;;;;5108401;29;20205;-70
2021/09/15 06:13:48;;;;;;;9.97;8.17;;;14.00;99.90;;;;;;5092094;29;20190;-72
2021/09/15 06:16:21;;;;;;;13.30;9.17;;;14.10;99.90;;;;;;5108078;29;20228;-68
2021/09/15 06:18:53;;;;;;;12.87;8.07;;;14.10;99.90;;;;;;5091366;29;20201;-70
2021/09/15 06:21:25;;;;;;;13.87;8.67;;;14.30;99.90;;;;;;5108195;29;20209;-73
2021/09/15 06:23:58;;;;;;;13.47;7.93;;;14.30;99.90;;;;;;5108101;29;20205;-68
2021/09/15 06:26:29;;;;;;;11.47;7.37;;;14.40;99.90;;;;;;5108568;29;20576;-70
2021/09/15 06:29:01;;;;;;;13.70;8.07;;;14.50;99.90;;;;;;5109030;29;20221;-68
2021/09/15 06:31:36;;;;;;;12.37;8.10;;;14.60;99.90;;;;;;5111272;29;20528;-72
2021/09/15 06:34:08;;;;;;;13.13;7.17;;;14.70;99.90;;;;;;5128073;29;20295;-72
2021/09/15 06:36:41;;;;;;;12.37;6.83;;;14.80;99.90;;;;;;5111354;29;20216;-68
2021/09/15 06:39:12;;;;;;;10.83;6.43;;;15.10;99.90;;;;;;5128254;29;20215;-69
2021/09/15 06:41:47;;;;;;;8.20;5.18;;;16.20;99.90;;;;;;5128295;29;20498;-71
2021/09/15 06:44:19;;;;;;;8.07;4.90;;;18.00;99.90;;;;;;5111217;29;20541;-71
2021/09/15 06:46:53;;;;;;;7.47;3.70;;;19.70;99.90;;;;;;5127472;29;20571;-70
2021/09/15 06:49:25;;;;;;;7.10;3.67;;;21.40;99.90;;;;;;5128250;29;20209;-71
2021/09/15 06:51:57;;;;;;;5.75;3.35;;;23.10;99.90;;;;;;5128143;29;20563;-71
2021/09/15 06:54:29;;;;;;;7.10;3.30;;;24.70;99.90;;;;;;5095182;29;20241;-74
2021/09/15 06:57:03;;;;;;;5.45;2.85;;;26.10;99.90;;;;;;5076431;29;20209;-57
2021/09/15 06:59:35;;;;;;;5.25;3.40;;;27.20;99.90;;;;;;5096702;29;20212;-58
2021/09/15 07:02:07;;;;;;;5.07;2.50;;;28.10;99.90;;;;;;5107234;29;20213;-56
2021/09/15 07:04:41;;;;;;;4.43;2.13;;;28.80;99.90;;;;;;5107430;29;20209;-54
2021/09/15 07:07:13;;;;;;;4.63;2.05;;;29.40;99.90;;;;;;5087065;29;20299;-53
2021/09/15 07:09:47;;;;;;;5.38;2.38;;;29.80;99.10;;;;;;5107098;29;20645;-57
2021/09/15 07:12:22;;;;;;;7.30;2.03;;;30.00;97.00;;;;;;5107596;29;20233;-55
2021/09/15 07:14:57;;;;;;;2.67;1.80;;;30.20;95.50;;;;;;5107662;29;20205;-59
2021/09/15 07:17:29;;;;;;;5.20;2.05;;;30.50;94.50;;;;;;5107811;29;20209;-60
2021/09/15 07:20:02;;;;;;;3.60;2.13;;;30.70;93.70;;;;;;5107391;29;20210;-56
2021/09/15 07:22:34;;;;;;;3.88;1.70;;;30.90;92.70;;;;;;5091207;29;20218;-56
2021/09/15 07:25:06;;;;;;;3.85;1.77;;;30.80;91.80;;;;;;5107465;29;20224;-58
2021/09/15 07:27:39;;;;;;;6.15;1.90;;;30.40;91.50;;;;;;5106962;29;20237;-57
2021/09/15 07:30:12;;;;;;;3.33;2.08;;;30.00;91.70;;;;;;5091165;29;20261;-53
2021/09/15 07:32:46;;;;;;;4.35;1.98;;;29.70;91.40;;;;;;5091136;29;20560;-53
2021/09/15 07:35:23;;;;;;;7.03;2.00;;;29.30;92.30;;;;;;5107451;29;20243;-56
2021/09/15 07:37:58;;;;;;;4.80;2.28;;;28.10;92.20;;;;;;5092407;29;20205;-54
2021/09/15 07:40:33;;;;;;;2.72;2.15;;;26.90;93.70;;;;;;5090534;29;20205;-58
2021/09/15 07:43:05;;;;;;;5.90;1.98;;;26.30;95.30;;;;;;5107882;29;20528;-60
2021/09/15 07:45:37;;;;;;;3.70;1.90;;;25.20;97.40;;;;;;5075779;29;20237;-60
2021/09/15 07:48:09;;;;;;;4.43;2.28;;;24.40;99.60;;;;;;5074643;29;20236;-55
2021/09/15 07:50:41;;;;;;;3.05;2.10;;;23.60;99.90;;;;;;5089922;29;20321;-56
2021/09/15 07:53:12;;;;;;;3.53;1.80;;;23.30;99.90;;;;;;5106912;29;20210;-61
2021/09/15 07:55:47;;;;;;;5.57;2.33;;;23.00;99.90;;;;;;5106637;29;20244;-57
2021/09/15 07:58:19;;;;;;;4.68;2.20;;;22.60;99.90;;;;;;5073093;29;20248;-58
2021/09/15 08:00:51;;;;;;;3.53;1.92;;;22.50;99.90;;;;;;5106748;29;20564;-63
2021/09/15 08:03:24;;;;;;;2.92;2.22;;;22.10;99.90;;;;;;5090416;29;20637;-54
2021/09/15 08:06:01;;;;;;;2.70;1.95;;;21.70;99.90;;;;;;5119367;29;20232;-52
2021/09/15 08:08:33;;;;;;;3.92;2.10;;;21.50;99.90;;;;;;5110616;29;20217;-57
2021/09/15 08:11:05;;;;;;;3.83;2.28;;;21.50;99.90;;;;;;5125928;29;20225;-59
2021/09/15 08:13:41;;;;;;;3.40;2.10;;;21.60;99.90;;;;;;5111918;29;20221;-56
2021/09/15 08:16:15;;;;;;;6.50;2.50;;;21.50;99.90;;;;;;5106796;29;20239;-58
2021/09/15 08:18:47;;;;;;;4.07;2.10;;;21.50;99.90;;;;;;5090376;29;20535;-60
2021/09/15 08:21:42;;;;;;;4.47;2.45;;;21.40;99.90;;;;;;5087355;29;20295;-54
2021/09/15 08:24:14;;;;;;;3.40;1.88;;;21.30;99.90;;;;;;5086778;29;20232;-55
2021/09/15 08:26:48;;;;;;;3.60;2.05;;;21.30;99.90;;;;;;5084631;29;20225;-57
2021/09/15 08:29:20;;;;;;;4.45;2.35;;;21.30;99.90;;;;;;5105795;29;20229;-55
2021/09/15 08:31:52;;;;;;;4.50;2.22;;;21.20;99.90;;;;;;5089887;29;20313;-54
2021/09/15 08:34:29;;;;;;;2.05;1.13;;;21.40;99.90;;;;;;5059058;29;20220;-58
2021/09/15 08:37:01;;;;;;;2.70;1.60;;;21.40;99.90;;;;;;5106013;29;20268;-53
2021/09/15 08:39:33;;;;;;;4.57;2.40;;;21.20;99.90;;;;;;5109959;29;20217;-59
2021/09/15 08:42:08;;;;;;;2.80;2.05;;;20.90;99.90;;;;;;5109997;29;20248;-56
2021/09/15 08:44:40;;;;;;;8.45;2.83;;;20.80;99.90;;;;;;5077682;29;20205;-55
2021/09/15 08:47:14;;;;;;;4.95;2.90;;;20.70;99.90;;;;;;5109538;29;20237;-51
2021/09/15 08:49:49;;;;;;;5.68;3.00;;;20.60;99.90;;;;;;5124716;29;20201;-58
2021/09/15 08:52:24;;;;;;;4.25;2.70;;;20.40;99.90;;;;;;5093642;29;20226;-57
2021/09/15 08:54:56;;;;;;;5.88;2.33;;;20.20;99.90;;;;;;5110353;29;20598;-53
2021/09/15 08:57:30;;;;;;;6.43;2.42;;;20.50;99.90;;;;;;5109931;29;20574;-60
2021/09/15 09:00:08;;;;;;;5.10;2.50;;;20.80;99.90;;;;;;5092083;29;20260;-53
2021/09/15 09:02:46;;;;;;;5.85;2.60;;;20.80;99.90;;;;;;5109826;29;20229;-53
2021/09/15 09:05:19;;;;;;;4.50;2.83;;;21.00;99.90;;;;;;5109721;29;20537;-53
2021/09/15 09:07:53;;;;;;;7.60;3.00;;;21.20;99.90;;;;;;5092334;29;20241;-55
2021/09/15 09:10:33;;;;;;;5.72;2.55;;;21.00;99.90;;;;;;5110291;29;20204;-55
2021/09/15 09:13:17;;;;;;;5.03;2.33;;;20.90;99.90;;;;;;5109783;29;20561;-67
2021/09/15 09:15:51;;;;;;;4.57;2.95;;;20.70;99.90;;;;;;5093145;29;20525;-69
2021/09/15 09:18:28;;;;;;;3.65;2.28;;;20.70;99.90;;;;;;5109727;29;20357;-69
2021/09/15 09:21:02;;;;;;;5.50;2.55;;;20.60;99.90;;;;;;5109677;29;20213;-70
2021/09/15 09:23:42;;;;;;;3.45;1.90;;;20.80;99.90;;;;;;5093899;29;20323;-70
2021/09/15 09:26:14;;;;;;;3.45;1.70;;;20.70;99.90;;;;;;5092932;29;20213;-69
2021/09/15 09:28:46;;;;;;;3.38;2.00;;;20.60;99.90;;;;;;5094884;29;20238;-71
2021/09/15 09:31:18;;;;;;;5.45;2.80;;;20.40;99.90;;;;;;5129395;29;20211;-68
2021/09/15 09:34:03;;;;;;;3.13;2.20;;;20.40;99.90;;;;;;5129750;29;20228;-69
2021/09/15 09:36:37;;;;;;;3.45;2.33;;;20.30;99.90;;;;;;5129739;29;20192;-69
2021/09/15 09:39:11;;;;;;;3.92;2.28;;;20.30;99.90;;;;;;5113873;29;20240;-68
2021/09/15 09:41:43;;;;;;;3.53;2.83;;;20.30;99.90;;;;;;5094164;29;20224;-68
2021/09/15 09:44:26;;;;;;;4.93;2.33;;;20.00;99.90;;;;;;5109637;29;20306;-68
2021/09/15 09:47:17;;;;;;;4.53;2.60;;;19.90;99.90;;;;;;5092975;29;20194;-66
2021/09/15 09:50:07;;;;;;;3.47;2.33;;;19.80;99.90;;;;;;5107766;29;20261;-68
2021/09/15 09:52:54;;;;;;;6.63;2.70;;;19.70;99.90;;;;;;5109502;29;20506;-69
2021/09/15 09:55:40;;;;;;;6.13;3.38;;;19.80;99.90;;;;;;5109037;29;20194;-70
2021/09/15 09:58:20;;;;;;;3.80;3.13;;;19.80;99.90;;;;;;5109082;29;20245;-68
2021/09/15 10:00:59;;;;;;;7.50;2.58;;;19.90;99.90;;;;;;5109343;29;20193;-69
2021/09/15 10:03:31;;;;;;;3.63;2.70;;;20.00;99.90;;;;;;5109260;29;20535;-70
2021/09/15 10:06:03;;;;;;;3.47;2.20;;;19.90;99.90;;;;;;5091840;29;20642;-70
2021/09/15 10:08:35;;;;;;;6.28;2.58;;;19.90;99.90;;;;;;5107425;29;20241;-57
2021/09/15 10:11:08;;;;;;;3.58;2.08;;;20.00;99.90;;;;;;5092083;29;20209;-54
2021/09/15 10:13:40;;;;;;;2.67;2.10;;;19.90;99.90;;;;;;5107948;29;20202;-60
2021/09/15 10:16:14;;;;;;;3.25;2.28;;;19.90;99.90;;;;;;5091405;29;20202;-61
2021/09/15 10:19:06;;;;;;;3.92;2.35;;;19.90;99.90;;;;;;5091568;29;20198;-52
2021/09/15 10:21:39;;;;;;;3.72;1.77;;;19.80;99.90;;;;;;5091884;29;20202;-54
2021/09/15 10:24:12;;;;;;;4.97;1.92;;;19.80;99.90;;;;;;5111717;29;20209;-53
2021/09/15 10:26:45;;;;;;;3.58;1.85;;;19.70;99.90;;;;;;5128282;29;20220;-55
2021/09/15 10:29:28;;;;;;;3.10;1.83;;;19.70;99.90;;;;;;5128286;29;20228;-51
2021/09/15 10:32:03;;;;;;;4.03;2.00;;;19.70;99.90;;;;;;5128212;29;20205;-55
2021/09/15 10:34:38;;;;;;;5.40;1.90;;;19.80;99.90;;;;;;5126875;29;20209;-53
2021/09/15 10:37:13;;;;;;;3.75;2.10;;;19.90;99.90;;;;;;5093713;29;20210;-56
2021/09/15 10:40:03;;;;;;;3.50;2.72;;;20.10;99.90;;;;;;5088408;29;20220;-62
2021/09/15 10:42:56;;;;;;;3.83;2.22;;;20.20;99.90;;;;;;5088187;29;20218;-54
2021/09/15 10:45:31;;;;;;;4.25;2.30;;;20.20;99.90;;;;;;5110406;29;20204;-55
2021/09/15 10:48:11;;;;;;;6.00;2.53;;;20.20;99.90;;;;;;5124652;29;20267;-56
2021/09/15 10:50:46;;;;;;;3.35;2.20;;;19.80;99.90;;;;;;5091146;29;20325;-54
2021/09/15 10:53:22;;;;;;;3.65;2.20;;;19.60;99.90;;;;;;5107937;29;20189;-52
2021/09/15 10:55:58;;;;;;;2.95;2.33;;;19.50;99.90;;;;;;5108007;29;20186;-51
2021/09/15 10:58:43;;;;;;;2.85;2.10;;;19.40;99.90;;;;;;5090845;29;20236;-63
2021/09/15 11:01:39;;;;;;;4.00;1.98;;;19.20;99.90;;;;;;5107230;29;20221;-50
2021/09/15 11:04:31;;;;;;;3.40;2.28;;;19.20;99.90;;;;;;5108125;29;20276;-56
2021/09/15 11:07:06;;;;;;;2.50;2.08;;;19.10;99.90;;;;;;5107269;29;20264;-52
2021/09/15 11:09:39;;;;;;;3.53;1.83;;;19.20;99.90;;;;;;5107743;29;20233;-60
2021/09/15 11:12:49;;;;;;;6.07;2.15;;;19.30;99.90;;;;;;5107239;29;20682;-54
2021/09/15 11:15:25;;;;;;;3.63;2.03;;;19.60;99.90;;;;;;5109206;29;20198;-57
2021/09/15 11:17:57;;;;;;;4.50;2.30;;;19.60;99.90;;;;;;5090606;29;20243;-54
2021/09/15 11:20:32;;;;;;;2.30;1.90;;;19.60;99.90;;;;;;5107730;29;20273;-53
2021/09/15 11:23:09;;;;;;;3.25;1.85;;;19.50;99.90;;;;;;5107442;29;20236;-59
2021/09/15 11:25:41;;;;;;;4.80;2.20;;;19.60;99.90;;;;;;5090870;29;20209;-60
2021/09/15 11:28:18;;;;;;;2.97;1.65;;;19.90;99.90;;;;;;5107228;29;20634;-54
2021/09/15 11:30:55;;;;;;;4.28;2.13;;;20.10;99.90;;;;;;5090801;29;20209;-56
2021/09/15 11:33:34;;;;;;;4.72;2.30;;;20.20;99.90;;;;;;5107182;29;20225;-54
2021/09/15 11:36:10;;;;;;;3.10;1.83;;;20.00;99.90;;;;;;5106134;29;20644;-54
2021/09/15 11:38:42;;;;;;;2.97;2.20;;;20.00;99.90;;;;;;5107017;29;20240;-51
2021/09/15 11:41:18;;;;;;;2.75;1.80;;;19.80;99.90;;;;;;5107070;29;20206;-59
2021/09/15 11:43:50;;;;;;;4.25;2.15;;;19.80;99.90;;;;;;5089558;29;20225;-55
2021/09/15 11:46:34;;;;;;;3.78;2.15;;;19.70;99.90;;;;;;5105228;29;20230;-62
2021/09/15 11:49:06;;;;;;;4.32;2.50;;;19.80;99.90;;;;;;5106941;29;20583;-60
2021/09/15 11:51:38;;;;;;;2.85;2.08;;;19.80;99.90;;;;;;5090170;29;20205;-56
2021/09/15 11:54:13;;;;;;;3.40;2.70;;;19.80;99.90;;;;;;5090412;29;20537;-66
2021/09/15 11:56:53;;;;;;;3.15;1.83;;;19.80;99.90;;;;;;5089689;29;20216;-70
2021/09/15 11:59:25;;;;;;;2.80;2.13;;;19.90;99.90;;;;;;5090267;29;20256;-66
2021/09/15 12:02:09;;;;;;;5.18;2.10;;;20.30;99.90;;;;;;5089461;29;20296;-61
2021/09/15 12:04:44;;;;;;;5.65;2.47;;;20.60;99.90;;;;;;5107168;29;20236;-60
2021/09/15 12:07:20;;;;;;;5.93;2.67;;;20.90;99.90;;;;;;5102415;29;20220;-58
2021/09/15 12:09:54;;;;;;;4.32;2.78;;;21.00;99.90;;;;;;5117316;29;20233;-58
2021/09/15 12:12:28;;;;;;;4.97;2.40;;;21.00;99.90;;;;;;5089763;29;20201;-58
2021/09/15 12:15:01;;;;;;;6.40;2.30;;;20.90;99.90;;;;;;5110465;29;20225;-57
2021/09/15 12:17:36;;;;;;;3.40;2.67;;;20.80;99.90;;;;;;5107820;29;20240;-59
2021/09/15 12:20:10;;;;;;;4.88;2.65;;;20.70;99.90;;;;;;5112162;29;20722;-55
2021/09/15 12:22:42;;;;;;;3.15;2.25;;;20.60;99.90;;;;;;5078927;29;20255;-61
2021/09/15 12:25:17;;;;;;;5.13;2.70;;;20.40;99.90;;;;;;5112751;29;20232;-61
2021/09/15 12:27:56;;;;;;;5.53;2.55;;;20.20;99.90;;;;;;5113875;29;20204;-62
2021/09/15 12:30:30;;;;;;;3.75;1.88;;;20.10;99.90;;;;;;5095201;29;20233;-63
2021/09/15 12:33:02;;;;;;;2.70;1.90;;;20.00;99.90;;;;;;5094042;29;20224;-66
2021/09/15 12:35:35;;;;;;;2.50;2.05;;;20.10;99.90;;;;;;5110440;29;20230;-63
2021/09/15 12:38:07;;;;;;;4.65;2.10;;;20.20;99.90;;;;;;5093923;29;20213;-61
2021/09/15 12:40:40;;;;;;;3.47;2.00;;;20.10;99.90;;;;;;5110270;29;20527;-62
2021/09/15 12:43:13;;;;;;;3.90;2.15;;;20.10;99.90;;;;;;5110183;29;20288;-63
2021/09/15 12:45:46;;;;;;;4.25;2.10;;;20.10;99.90;;;;;;5092318;29;20205;-60
2021/09/15 12:48:19;;;;;;;5.25;2.05;;;20.10;99.90;;;;;;5109652;29;20702;-57
2021/09/15 12:50:53;;;;;;;2.97;1.60;;;20.10;99.90;;;;;;5109370;29;20539;-59
2021/09/15 12:53:28;;;;;;;6.00;2.75;;;20.30;99.90;;;;;;5110181;29;20197;-61
2021/09/15 12:56:08;;;;;;;6.32;3.72;;;20.40;99.90;;;;;;5110178;29;20208;-63
2021/09/15 12:58:51;;;;;;;11.23;4.70;;;20.40;99.90;;;;;;5112206;29;20316;-65
2021/09/15 13:01:24;;;;;;;7.28;4.00;;;20.40;99.90;;;;;;5128498;29;20205;-56
2021/09/15 13:03:56;;;;;;;10.13;4.53;;;20.20;99.90;;;;;;5128741;29;20200;-60
2021/09/15 13:06:28;;;;;;;7.50;4.60;;;20.10;99.90;;;;;;5128846;29;20272;-61
2021/09/15 13:09:00;;;;;;;6.32;4.32;;;20.00;99.90;;;;;;5083269;29;20276;-59
2021/09/15 13:11:32;;;;;;;10.63;4.35;;;19.70;99.90;;;;;;5108056;29;20320;-57
2021/09/15 13:14:07;;;;;;;8.65;5.93;;;19.70;99.90;;;;;;5128452;29;20248;-59
2021/09/15 13:16:39;;;;;;;10.18;4.70;;;19.60;99.90;;;;;;5092997;29;20636;-60
2021/09/15 13:19:11;;;;;;;8.55;4.43;;;19.70;99.90;;;;;;5109427;29;20209;-63
2021/09/15 13:21:43;;;;;;;7.13;4.43;;;19.80;99.90;;;;;;5109515;29;20288;-61